Time;durP1;ratioP1;P1;durP2;ratioP2;P2;SDS_P1;SDS_P2;PMS_P1;PMS_P2;Temp;Humidity;BMP_temperature;BMP_pressure;BME280_temperature;BME280_humidity;BME280_pressure;Samples;Min_cycle;Max_cycle;Signal;HPM_P1;HPM_P2
2020/12/16 00:02:19;;;;;;;33.17;18.50;;;10.00;78.00;;;;;;4960463;29;20594;-94
2020/12/16 00:04:48;;;;;;;32.20;17.98;;;10.00;77.80;;;;;;4952958;29;20432;-94
2020/12/16 00:07:15;;;;;;;32.10;18.30;;;10.00;77.80;;;;;;4962916;29;20183;-94
2020/12/16 00:09:41;;;;;;;30.60;17.33;;;10.00;77.90;;;;;;4945977;29;20196;-94
2020/12/16 00:12:07;;;;;;;35.47;20.17;;;10.00;78.00;;;;;;4947759;29;20181;-93
2020/12/16 00:14:32;;;;;;;28.53;18.27;;;10.10;78.30;;;;;;4959563;29;20259;-94
2020/12/16 00:16:58;;;;;;;28.70;19.33;;;10.00;78.10;;;;;;4958562;29;20187;-95
2020/12/16 00:19:24;;;;;;;36.20;18.17;;;10.10;78.10;;;;;;4960958;29;20224;-94
2020/12/16 00:21:50;;;;;;;35.83;19.27;;;10.00;78.60;;;;;;4958537;29;20475;-93
2020/12/16 00:24:16;;;;;;;29.60;18.17;;;10.00;77.40;;;;;;4942509;29;20184;-93
2020/12/16 00:26:42;;;;;;;31.65;18.10;;;10.00;76.80;;;;;;4960876;29;20184;-94
2020/12/16 00:29:09;;;;;;;29.27;18.92;;;10.00;76.80;;;;;;4966981;29;20239;-94
2020/12/16 00:31:36;;;;;;;35.08;19.50;;;10.00;77.20;;;;;;4959078;29;20180;-92
2020/12/16 00:34:03;;;;;;;34.45;20.00;;;10.00;77.30;;;;;;4963005;29;20269;-93
2020/12/16 00:36:29;;;;;;;27.60;18.35;;;9.90;77.40;;;;;;4977321;29;20169;-93
2020/12/16 00:38:54;;;;;;;33.33;19.30;;;9.80;77.80;;;;;;4977778;28;20208;-92
2020/12/16 00:41:20;;;;;;;29.10;19.43;;;9.90;78.00;;;;;;4977942;29;20199;-92
2020/12/16 00:43:46;;;;;;;30.47;18.30;;;10.00;78.10;;;;;;4978814;29;20168;-92
2020/12/16 00:46:13;;;;;;;39.17;20.73;;;10.00;77.40;;;;;;4978952;29;20164;-93
2020/12/16 00:48:39;;;;;;;34.75;21.13;;;10.00;77.20;;;;;;4979138;28;20224;-93
2020/12/16 00:51:05;;;;;;;35.93;20.03;;;10.00;77.20;;;;;;4977326;28;20175;-94
2020/12/16 00:53:30;;;;;;;33.60;19.60;;;10.00;78.10;;;;;;4958288;29;20975;-94
2020/12/16 00:55:56;;;;;;;28.63;18.07;;;10.00;77.30;;;;;;4968100;29;20708;-94
2020/12/16 00:58:22;;;;;;;38.60;20.23;;;9.80;77.30;;;;;;4961794;29;20633;-94
2020/12/16 01:00:48;;;;;;;31.63;18.90;;;9.90;77.40;;;;;;4958280;28;20208;-94
2020/12/16 01:03:13;;;;;;;36.10;21.43;;;10.00;77.40;;;;;;4958712;29;20181;-94
2020/12/16 01:05:39;;;;;;;31.70;20.10;;;10.00;77.20;;;;;;4957965;29;20195;-94
2020/12/16 01:08:05;;;;;;;32.47;20.20;;;10.00;77.30;;;;;;4956624;29;20214;-93
2020/12/16 01:10:30;;;;;;;38.13;21.10;;;9.90;77.20;;;;;;4958032;28;20267;-94
2020/12/16 01:12:56;;;;;;;32.50;19.47;;;9.90;77.10;;;;;;4958225;29;20428;-94
2020/12/16 01:15:23;;;;;;;33.80;20.63;;;9.80;77.10;;;;;;4958190;29;20684;-94
2020/12/16 01:17:49;;;;;;;33.83;20.40;;;9.80;76.50;;;;;;4962576;29;20185;-94
2020/12/16 01:20:16;;;;;;;34.25;21.77;;;9.60;76.40;;;;;;4958093;28;20681;-94
2020/12/16 01:22:46;;;;;;;32.17;20.90;;;9.50;76.30;;;;;;4966459;28;20169;-96
2020/12/16 01:25:14;;;;;;;39.92;20.65;;;9.60;76.90;;;;;;4971275;29;20188;-94
2020/12/16 01:27:39;;;;;;;33.78;20.63;;;9.60;77.10;;;;;;4958191;29;20298;-94
2020/12/16 01:30:09;;;;;;;35.83;21.27;;;9.60;77.40;;;;;;4962516;28;20196;-95
2020/12/16 01:32:36;;;;;;;36.70;21.20;;;9.50;77.90;;;;;;4963864;29;20488;-94
2020/12/16 01:35:11;;;;;;;41.35;21.70;;;9.60;78.00;;;;;;4946843;29;20264;-94
2020/12/16 01:37:38;;;;;;;60.50;22.42;;;9.60;77.70;;;;;;4938285;29;20186;-94
2020/12/16 01:40:09;;;;;;;48.90;23.25;;;9.60;77.70;;;;;;4939540;29;20772;-94
2020/12/16 01:42:36;;;;;;;41.70;21.73;;;9.60;77.70;;;;;;4940206;29;20642;-94
2020/12/16 01:45:07;;;;;;;42.95;22.80;;;9.50;77.90;;;;;;4926438;29;20185;-94
2020/12/16 01:47:33;;;;;;;43.33;21.45;;;9.40;78.00;;;;;;4937473;29;20220;-95
2020/12/16 01:50:00;;;;;;;45.70;20.10;;;9.40;78.50;;;;;;4925825;29;20201;-94
2020/12/16 01:52:28;;;;;;;47.45;20.63;;;9.30;78.80;;;;;;4926702;29;20672;-94
2020/12/16 01:54:55;;;;;;;42.13;20.15;;;9.30;79.00;;;;;;4925849;29;20192;-94
2020/12/16 01:57:23;;;;;;;43.25;18.85;;;9.30;79.40;;;;;;4930551;29;20173;-94
2020/12/16 01:59:51;;;;;;;38.72;18.27;;;9.30;79.70;;;;;;4937281;29;20228;-93
2020/12/16 02:02:18;;;;;;;37.28;17.60;;;9.40;79.80;;;;;;4940413;29;20166;-93
2020/12/16 02:04:45;;;;;;;40.50;17.15;;;9.40;79.80;;;;;;4942442;29;20181;-93
2020/12/16 02:07:12;;;;;;;36.83;16.42;;;9.40;79.70;;;;;;4943996;29;20185;-93
2020/12/16 02:09:48;;;;;;;40.10;16.63;;;9.30;79.90;;;;;;4938044;29;20296;-95
2020/12/16 02:12:23;;;;;;;35.90;15.50;;;9.50;80.20;;;;;;4925274;29;20309;-93
2020/12/16 02:14:49;;;;;;;36.22;15.32;;;9.50;80.30;;;;;;4925430;29;20191;-95
2020/12/16 02:17:15;;;;;;;38.38;17.73;;;9.60;80.40;;;;;;4926305;29;20656;-93
2020/12/16 02:19:58;;;;;;;107.97;17.83;;;9.60;80.40;;;;;;4939298;29;20205;-93
2020/12/16 02:22:25;;;;;;;42.83;16.20;;;9.60;80.50;;;;;;4923797;29;20245;-93
2020/12/16 02:25:06;;;;;;;39.30;15.55;;;9.70;80.60;;;;;;4923869;29;20591;-93
2020/12/16 02:27:33;;;;;;;36.70;16.15;;;9.70;80.60;;;;;;4931208;29;20166;-92
2020/12/16 02:29:59;;;;;;;42.00;17.38;;;9.70;80.60;;;;;;4933933;29;20209;-95
2020/12/16 02:32:27;;;;;;;40.53;16.53;;;9.70;80.60;;;;;;4927263;29;20178;-93
2020/12/16 02:34:56;;;;;;;35.67;15.90;;;9.80;80.70;;;;;;4935894;29;20480;-93
2020/12/16 02:37:23;;;;;;;39.35;16.55;;;9.80;80.30;;;;;;4963121;29;20189;-94
2020/12/16 02:39:49;;;;;;;45.38;16.45;;;9.80;80.40;;;;;;4968857;28;20225;-93
2020/12/16 02:42:26;;;;;;;45.50;18.30;;;9.90;80.30;;;;;;4976917;29;20187;-93
2020/12/16 02:44:53;;;;;;;39.75;18.00;;;9.80;80.10;;;;;;4976217;29;20252;-93
2020/12/16 02:47:19;;;;;;;39.03;19.02;;;9.80;80.20;;;;;;4966340;29;20193;-93
2020/12/16 02:49:45;;;;;;;41.10;17.77;;;9.90;80.60;;;;;;4962781;28;20193;-93
2020/12/16 02:52:11;;;;;;;38.63;15.77;;;10.00;80.70;;;;;;4960520;29;20180;-94
2020/12/16 02:54:37;;;;;;;39.10;16.03;;;9.80;80.40;;;;;;4960764;29;20180;-94
2020/12/16 02:57:03;;;;;;;48.60;17.37;;;9.80;80.90;;;;;;4968208;29;20459;-93
2020/12/16 02:59:29;;;;;;;43.38;17.13;;;9.60;81.00;;;;;;4961049;28;20204;-93
2020/12/16 03:01:56;;;;;;;32.88;16.30;;;9.70;81.40;;;;;;4961857;29;20197;-94
2020/12/16 03:04:23;;;;;;;44.58;18.98;;;9.80;81.40;;;;;;4958511;29;20180;-93
2020/12/16 03:06:50;;;;;;;45.35;16.10;;;9.80;81.50;;;;;;4957614;29;20275;-94
2020/12/16 03:09:17;;;;;;;39.13;17.17;;;9.80;81.60;;;;;;4956930;28;20216;-93
2020/12/16 03:11:43;;;;;;;47.45;17.10;;;9.70;81.70;;;;;;4957205;29;20208;-95
2020/12/16 03:14:10;;;;;;;38.33;16.45;;;9.70;82.60;;;;;;4959117;28;20229;-93
2020/12/16 03:16:36;;;;;;;48.63;20.88;;;9.80;81.90;;;;;;4961128;28;20199;-94
2020/12/16 03:19:03;;;;;;;49.08;20.50;;;9.80;81.90;;;;;;4958735;28;20204;-94
2020/12/16 03:21:29;;;;;;;46.35;17.85;;;9.90;82.10;;;;;;4957523;28;20193;-94
2020/12/16 03:23:55;;;;;;;42.00;19.03;;;10.00;82.00;;;;;;4958853;29;20204;-94
2020/12/16 03:26:21;;;;;;;54.72;21.20;;;10.00;81.50;;;;;;4959597;29;20416;-94
2020/12/16 03:28:47;;;;;;;50.22;20.08;;;10.00;81.20;;;;;;4957432;28;20208;-94
2020/12/16 03:31:14;;;;;;;49.03;19.20;;;10.10;81.50;;;;;;4957253;29;20177;-93
2020/12/16 03:33:44;;;;;;;47.05;20.20;;;10.10;81.40;;;;;;4956534;29;20208;-94
2020/12/16 03:36:18;;;;;;;50.22;19.60;;;10.20;81.20;;;;;;4956575;29;20172;-94
2020/12/16 03:38:44;;;;;;;52.13;19.27;;;10.00;80.50;;;;;;4957359;28;20315;-94
2020/12/16 03:41:10;;;;;;;46.97;18.65;;;9.90;80.80;;;;;;4940928;29;20208;-93
2020/12/16 03:43:36;;;;;;;60.00;21.52;;;10.00;81.30;;;;;;4956052;29;20188;-94
2020/12/16 03:46:10;;;;;;;52.90;21.00;;;10.10;81.60;;;;;;4956127;29;20181;-94
2020/12/16 03:48:37;;;;;;;51.08;20.20;;;10.20;81.30;;;;;;4959581;28;20204;-92
2020/12/16 03:51:12;;;;;;;56.25;22.05;;;10.20;80.90;;;;;;4956368;29;20188;-94
2020/12/16 03:53:38;;;;;;;52.78;18.90;;;10.20;80.80;;;;;;4960806;29;20263;-94
2020/12/16 03:56:08;;;;;;;57.17;21.95;;;10.10;80.70;;;;;;4964078;29;20203;-93
2020/12/16 03:58:35;;;;;;;48.63;19.15;;;10.10;80.50;;;;;;4955836;28;20179;-94
2020/12/16 04:01:05;;;;;;;49.97;19.75;;;9.90;80.50;;;;;;4956118;29;20185;-93
2020/12/16 04:03:31;;;;;;;50.38;19.83;;;10.00;80.80;;;;;;4955811;29;20191;-93
2020/12/16 04:05:57;;;;;;;52.80;20.37;;;9.90;81.00;;;;;;4956728;29;20247;-94
2020/12/16 04:08:22;;;;;;;41.50;18.50;;;10.00;81.20;;;;;;4959239;29;20487;-94
2020/12/16 04:10:48;;;;;;;50.07;21.00;;;10.10;81.20;;;;;;4968209;28;20216;-94
2020/12/16 04:13:15;;;;;;;41.67;18.30;;;10.10;81.00;;;;;;4955992;29;20192;-94
2020/12/16 04:15:44;;;;;;;43.75;19.75;;;10.10;80.50;;;;;;4957520;29;20186;-94
2020/12/16 04:18:10;;;;;;;46.65;18.98;;;10.10;80.40;;;;;;4955622;29;20668;-94
2020/12/16 04:20:36;;;;;;;52.77;21.63;;;10.00;80.10;;;;;;4955713;28;20205;-94
2020/12/16 04:23:04;;;;;;;43.87;18.73;;;9.70;80.30;;;;;;4957427;29;20995;-93
2020/12/16 04:25:29;;;;;;;54.88;20.17;;;9.70;80.60;;;;;;4956898;28;20916;-94
2020/12/16 04:27:55;;;;;;;38.73;18.13;;;9.60;81.00;;;;;;4956934;29;20212;-95
2020/12/16 04:30:22;;;;;;;47.20;18.57;;;9.70;81.30;;;;;;4958790;28;20471;-94
2020/12/16 04:32:51;;;;;;;37.08;18.17;;;9.70;81.30;;;;;;4958337;29;20231;-95
2020/12/16 04:35:18;;;;;;;49.22;18.83;;;9.80;81.20;;;;;;4943177;29;20188;-93
2020/12/16 04:37:50;;;;;;;42.70;19.50;;;9.80;80.80;;;;;;4937771;29;20217;-94
2020/12/16 04:40:34;;;;;;;50.53;21.55;;;9.90;80.80;;;;;;4939212;29;20212;-93
2020/12/16 04:43:06;;;;;;;62.10;20.35;;;10.00;80.60;;;;;;4921581;29;20173;-94
2020/12/16 04:45:32;;;;;;;40.75;18.38;;;9.80;80.00;;;;;;4936959;29;20658;-94
2020/12/16 04:47:57;;;;;;;42.13;18.75;;;9.70;80.10;;;;;;4937117;29;20693;-94
2020/12/16 04:50:25;;;;;;;40.63;17.77;;;9.80;80.40;;;;;;4937419;29;20258;-94
2020/12/16 04:52:51;;;;;;;38.13;18.65;;;9.50;80.20;;;;;;4939377;29;21016;-94
2020/12/16 04:55:18;;;;;;;44.17;19.90;;;9.60;80.50;;;;;;4921206;29;20188;-93
2020/12/16 04:57:50;;;;;;;44.83;18.70;;;9.50;80.40;;;;;;4936555;29;20185;-94
2020/12/16 05:00:24;;;;;;;49.20;18.50;;;9.40;80.40;;;;;;4936727;29;20201;-94
2020/12/16 05:03:01;;;;;;;40.88;16.83;;;9.50;80.60;;;;;;4937146;29;20202;-94
2020/12/16 05:05:28;;;;;;;42.35;18.52;;;9.40;80.30;;;;;;4952627;29;20189;-94
2020/12/16 05:07:54;;;;;;;46.25;20.08;;;9.40;80.40;;;;;;4937970;29;20209;-94
2020/12/16 05:10:32;;;;;;;40.30;17.60;;;9.40;80.10;;;;;;4937607;29;20228;-95
2020/12/16 05:13:07;;;;;;;35.33;16.40;;;9.50;80.40;;;;;;4937949;29;20180;-94
2020/12/16 05:15:33;;;;;;;45.35;18.92;;;9.50;80.30;;;;;;4924481;29;20271;-94
2020/12/16 05:18:10;;;;;;;37.28;18.25;;;9.40;79.90;;;;;;4926472;29;20185;-95
2020/12/16 05:20:51;;;;;;;37.88;18.63;;;9.30;79.90;;;;;;4927650;29;20224;-94
2020/12/16 05:23:18;;;;;;;36.10;16.35;;;9.30;79.90;;;;;;4939292;29;20183;-93
2020/12/16 05:26:04;;;;;;;40.97;18.17;;;9.30;79.90;;;;;;4939789;29;20192;-94
2020/12/16 05:28:33;;;;;;;37.75;18.35;;;9.30;79.90;;;;;;4939211;29;20249;-94
2020/12/16 05:31:03;;;;;;;41.00;18.25;;;9.20;79.70;;;;;;4939127;29;20182;-94
2020/12/16 05:33:29;;;;;;;41.97;17.70;;;9.20;79.90;;;;;;4926172;29;20185;-94
2020/12/16 05:35:55;;;;;;;48.30;20.17;;;9.40;80.00;;;;;;4924899;29;20210;-94
2020/12/16 05:38:22;;;;;;;46.58;19.98;;;9.30;79.80;;;;;;4928924;29;20189;-93
2020/12/16 05:40:48;;;;;;;52.38;19.63;;;9.30;79.70;;;;;;4928697;29;20205;-94
2020/12/16 05:43:26;;;;;;;45.08;17.42;;;9.40;79.70;;;;;;4929486;29;20181;-94
2020/12/16 05:45:51;;;;;;;39.03;18.42;;;9.30;79.30;;;;;;4941400;29;20173;-95
2020/12/16 05:48:17;;;;;;;38.20;18.60;;;9.40;79.50;;;;;;4948090;29;20201;-94
2020/12/16 05:50:52;;;;;;;39.63;16.67;;;9.30;79.50;;;;;;4948320;29;20212;-93
2020/12/16 05:53:29;;;;;;;34.30;18.20;;;9.30;79.50;;;;;;4948005;29;20457;-96
2020/12/16 05:55:59;;;;;;;39.53;16.58;;;9.30;79.40;;;;;;4938865;29;20182;-94
2020/12/16 05:58:30;;;;;;;38.45;16.10;;;9.20;79.40;;;;;;4938856;29;20237;-95
2020/12/16 06:01:00;;;;;;;38.05;18.50;;;9.30;79.80;;;;;;4947032;29;20203;-95
2020/12/16 06:03:37;;;;;;;30.73;16.52;;;9.10;80.20;;;;;;4935639;29;20176;-95
2020/12/16 06:06:07;;;;;;;32.05;14.15;;;9.20;79.60;;;;;;4929781;29;20304;-95
2020/12/16 06:08:38;;;;;;;34.20;16.30;;;9.20;79.40;;;;;;4928156;29;20443;-94
2020/12/16 06:11:07;;;;;;;35.30;17.10;;;9.00;79.10;;;;;;4927224;29;20658;-94
2020/12/16 06:13:33;;;;;;;36.53;17.65;;;8.90;78.90;;;;;;4930945;29;20555;-94
2020/12/16 06:16:04;;;;;;;38.17;16.02;;;8.80;79.40;;;;;;4934739;29;20185;-94
2020/12/16 06:18:43;;;;;;;31.92;15.18;;;8.80;79.70;;;;;;4931571;29;20192;-95
2020/12/16 06:21:10;;;;;;;35.88;15.45;;;9.00;80.00;;;;;;4928456;29;20197;-94
2020/12/16 06:23:44;;;;;;;35.75;17.13;;;9.10;79.80;;;;;;4942623;29;20177;-94
2020/12/16 06:26:14;;;;;;;33.20;15.25;;;9.00;78.80;;;;;;4943084;29;20261;-94
2020/12/16 06:28:41;;;;;;;33.83;17.48;;;9.00;78.70;;;;;;4941409;29;20197;-94
2020/12/16 06:31:28;;;;;;;32.40;15.70;;;8.90;78.60;;;;;;4929977;29;20192;-94
2020/12/16 06:34:13;;;;;;;33.67;15.60;;;9.00;78.50;;;;;;4943216;29;20196;-94
2020/12/16 06:36:41;;;;;;;31.15;15.80;;;8.90;78.30;;;;;;4946787;29;20261;-93
2020/12/16 06:39:23;;;;;;;35.55;17.25;;;8.70;78.30;;;;;;4946751;29;20185;-93
2020/12/16 06:41:58;;;;;;;27.65;15.30;;;8.80;78.80;;;;;;4928866;29;20182;-93
2020/12/16 06:44:25;;;;;;;34.08;15.45;;;9.00;78.90;;;;;;4945279;29;20228;-94
2020/12/16 06:46:54;;;;;;;41.63;17.08;;;9.00;78.60;;;;;;4943201;29;20181;-93
2020/12/16 06:49:23;;;;;;;35.88;16.27;;;9.00;78.30;;;;;;4927324;29;20609;-93
2020/12/16 06:51:55;;;;;;;38.13;16.40;;;9.10;78.50;;;;;;4940297;29;20181;-93
2020/12/16 06:54:23;;;;;;;37.95;17.10;;;8.90;78.60;;;;;;4930336;29;20161;-93
2020/12/16 06:57:08;;;;;;;36.03;16.55;;;8.90;78.90;;;;;;4949443;29;20185;-92
2020/12/16 06:59:50;;;;;;;33.42;15.43;;;9.00;79.40;;;;;;4942718;29;20303;-94
2020/12/16 07:02:25;;;;;;;36.85;15.93;;;9.10;79.40;;;;;;4944894;29;20546;-94
2020/12/16 07:04:51;;;;;;;39.85;16.45;;;9.00;79.50;;;;;;4944670;29;20169;-94
2020/12/16 07:07:46;;;;;;;33.88;15.32;;;8.90;79.70;;;;;;4944824;29;20177;-93
2020/12/16 07:10:36;;;;;;;44.70;17.70;;;9.00;80.20;;;;;;4950834;29;20242;-93
2020/12/16 07:13:17;;;;;;;41.97;15.85;;;9.00;80.40;;;;;;4960330;29;20187;-94
2020/12/16 07:15:52;;;;;;;33.72;15.88;;;9.00;80.70;;;;;;4958871;29;20192;-94
2020/12/16 07:18:28;;;;;;;30.80;14.77;;;9.10;80.70;;;;;;4961014;29;20179;-95
2020/12/16 07:21:21;;;;;;;36.10;14.95;;;9.20;80.50;;;;;;4966119;29;20239;-94
2020/12/16 07:23:52;;;;;;;34.45;14.75;;;9.30;80.30;;;;;;4941638;29;20189;-92
2020/12/16 07:26:50;;;;;;;37.95;16.17;;;9.40;80.20;;;;;;4941995;29;20272;-92
2020/12/16 07:29:25;;;;;;;30.65;14.95;;;9.40;79.80;;;;;;4944722;29;20288;-96
2020/12/16 07:32:07;;;;;;;31.60;14.82;;;9.30;79.80;;;;;;4947338;29;20240;-94
2020/12/16 07:34:45;;;;;;;32.70;14.82;;;9.40;79.90;;;;;;4936617;29;20315;-94
2020/12/16 07:37:12;;;;;;;33.25;14.38;;;9.10;79.80;;;;;;4942900;29;20186;-94
2020/12/16 07:39:47;;;;;;;34.60;15.65;;;9.20;80.40;;;;;;4940142;29;20213;-94
2020/12/16 07:42:22;;;;;;;42.92;16.90;;;9.20;80.30;;;;;;4942614;29;20191;-94
2020/12/16 07:44:47;;;;;;;36.35;16.77;;;9.10;80.30;;;;;;4961302;28;20177;-96
2020/12/16 07:47:16;;;;;;;43.93;17.40;;;9.00;80.10;;;;;;4961720;29;20265;-95
2020/12/16 07:49:42;;;;;;;38.28;17.17;;;9.10;80.30;;;;;;4961598;28;20481;-96
2020/12/16 07:52:07;;;;;;;44.17;17.33;;;9.20;80.20;;;;;;4961820;28;20168;-96
2020/12/16 07:54:33;;;;;;;36.80;16.63;;;9.20;80.00;;;;;;4961764;29;20436;-96
2020/12/16 07:57:06;;;;;;;37.57;18.37;;;9.30;79.90;;;;;;4960386;28;20216;-96
2020/12/16 07:59:34;;;;;;;34.63;17.10;;;9.40;79.60;;;;;;4960434;29;20467;-93
2020/12/16 08:02:06;;;;;;;32.28;16.58;;;9.40;78.90;;;;;;4942105;29;20185;-93
2020/12/16 08:04:32;;;;;;;39.38;17.08;;;9.50;78.80;;;;;;4943571;29;20173;-93
2020/12/16 08:07:13;;;;;;;35.47;16.10;;;9.30;78.10;;;;;;4942296;29;20181;-94
2020/12/16 08:09:57;;;;;;;35.88;17.45;;;9.00;78.40;;;;;;4942558;29;20224;-94
2020/12/16 08:12:25;;;;;;;27.35;14.52;;;8.90;78.60;;;;;;4943274;29;20181;-95
2020/12/16 08:15:19;;;;;;;34.30;14.63;;;8.90;78.90;;;;;;4947582;29;20181;-95
2020/12/16 08:17:47;;;;;;;36.53;16.52;;;8.80;79.00;;;;;;4944932;29;20181;-94
2020/12/16 08:20:41;;;;;;;32.55;15.10;;;8.80;78.90;;;;;;4949611;29;20204;-95
2020/12/16 08:23:12;;;;;;;27.30;14.57;;;8.90;79.20;;;;;;4924808;29;20201;-93
2020/12/16 08:25:38;;;;;;;27.67;14.07;;;8.80;78.60;;;;;;4936694;29;20188;-95
2020/12/16 08:28:05;;;;;;;33.33;17.67;;;8.90;78.70;;;;;;4948679;29;20216;-95
2020/12/16 08:30:32;;;;;;;23.02;14.70;;;9.00;78.50;;;;;;4949063;29;20224;-94
2020/12/16 08:33:06;;;;;;;26.20;14.10;;;9.00;78.30;;;;;;4947850;29;20189;-94
2020/12/16 08:35:57;;;;;;;26.70;12.68;;;9.00;78.10;;;;;;4944516;29;20183;-95
2020/12/16 08:38:41;;;;;;;25.48;12.82;;;9.00;78.00;;;;;;4939394;29;20199;-95
2020/12/16 08:41:09;;;;;;;26.35;13.65;;;9.00;78.00;;;;;;4951709;29;20193;-95
2020/12/16 08:43:42;;;;;;;30.17;13.63;;;8.70;77.90;;;;;;4947142;29;20189;-94
2020/12/16 08:46:19;;;;;;;30.27;14.63;;;8.50;78.70;;;;;;4946974;28;20238;-96
2020/12/16 08:48:50;;;;;;;35.08;14.35;;;8.70;79.10;;;;;;4949957;29;20303;-94
2020/12/16 08:51:30;;;;;;;22.15;13.73;;;8.90;79.00;;;;;;4944024;29;20181;-94
2020/12/16 08:53:57;;;;;;;19.08;11.85;;;9.00;78.80;;;;;;4944388;29;20177;-94
2020/12/16 08:56:26;;;;;;;23.98;13.85;;;9.10;78.60;;;;;;4943774;29;20184;-95
2020/12/16 08:59:05;;;;;;;19.48;11.27;;;9.20;78.30;;;;;;4942402;29;20197;-94
2020/12/16 09:01:32;;;;;;;24.38;13.73;;;9.10;78.00;;;;;;4942215;29;20185;-95
2020/12/16 09:03:58;;;;;;;22.20;13.90;;;9.20;78.10;;;;;;4944090;29;20246;-95
2020/12/16 09:06:24;;;;;;;20.92;11.80;;;9.20;77.70;;;;;;4941291;29;20189;-95
2020/12/16 09:08:50;;;;;;;20.85;11.95;;;9.10;77.60;;;;;;4941450;29;20637;-94
2020/12/16 09:11:20;;;;;;;24.50;11.70;;;9.10;77.60;;;;;;4944519;29;20185;-96
2020/12/16 09:13:50;;;;;;;23.67;12.65;;;9.20;77.60;;;;;;4944402;29;20425;-94
2020/12/16 09:16:21;;;;;;;18.17;11.23;;;9.10;77.60;;;;;;4931112;29;20185;-95
2020/12/16 09:18:47;;;;;;;21.45;13.07;;;9.10;77.80;;;;;;4933907;29;20181;-95
2020/12/16 09:21:17;;;;;;;20.25;11.07;;;9.10;78.80;;;;;;4948470;29;20287;-95
2020/12/16 09:23:44;;;;;;;20.80;11.05;;;9.00;78.30;;;;;;4944748;29;20244;-95
2020/12/16 09:26:11;;;;;;;21.35;11.85;;;9.20;78.70;;;;;;4941430;29;20185;-95
2020/12/16 09:28:40;;;;;;;18.35;10.63;;;9.10;78.40;;;;;;4942639;29;20205;-94
2020/12/16 09:31:17;;;;;;;15.95;9.73;;;9.30;78.60;;;;;;4940369;29;20185;-94
2020/12/16 09:33:57;;;;;;;18.02;10.57;;;9.30;78.20;;;;;;4942738;29;20184;-95
2020/12/16 09:36:26;;;;;;;17.83;10.75;;;9.40;78.20;;;;;;4942205;29;20173;-95
2020/12/16 09:38:59;;;;;;;21.85;10.88;;;9.50;78.50;;;;;;4941450;29;20245;-94
2020/12/16 09:41:25;;;;;;;14.35;9.85;;;9.60;78.30;;;;;;4941337;29;20678;-95
2020/12/16 09:43:52;;;;;;;22.02;10.43;;;9.80;78.20;;;;;;4956835;29;20174;-94
2020/12/16 09:46:23;;;;;;;16.95;11.45;;;9.80;77.50;;;;;;4941532;29;20224;-94
2020/12/16 09:48:50;;;;;;;20.40;10.35;;;9.90;77.50;;;;;;4941249;29;20257;-93
2020/12/16 09:51:20;;;;;;;22.27;10.43;;;9.90;77.10;;;;;;4940222;29;20665;-93
2020/12/16 09:53:46;;;;;;;16.38;10.15;;;9.90;77.70;;;;;;4958115;28;20207;-91
2020/12/16 09:56:26;;;;;;;16.77;9.57;;;9.70;76.60;;;;;;4962665;28;20191;-91
2020/12/16 09:58:52;;;;;;;19.48;9.43;;;9.90;77.20;;;;;;4979785;28;20222;-92
2020/12/16 10:01:18;;;;;;;16.58;10.93;;;9.70;76.90;;;;;;4978884;28;20188;-92
2020/12/16 10:03:45;;;;;;;18.17;9.75;;;9.80;77.40;;;;;;4961847;28;20239;-92
2020/12/16 10:06:14;;;;;;;13.60;9.32;;;10.00;77.60;;;;;;4965886;28;20241;-93
2020/12/16 10:08:41;;;;;;;17.75;9.93;;;9.80;77.10;;;;;;4955520;28;20204;-92
2020/12/16 10:11:12;;;;;;;14.55;9.55;;;9.80;77.20;;;;;;4942301;29;20185;-91
2020/12/16 10:13:39;;;;;;;13.88;8.88;;;10.10;77.80;;;;;;4942400;29;20176;-91
2020/12/16 10:16:05;;;;;;;17.40;10.25;;;10.20;77.70;;;;;;4940084;29;20185;-91
2020/12/16 10:18:30;;;;;;;13.85;9.20;;;10.30;77.30;;;;;;4942475;29;20176;-93
2020/12/16 10:20:56;;;;;;;14.50;10.03;;;10.30;76.80;;;;;;4945140;29;20565;-94
2020/12/16 10:23:22;;;;;;;14.73;8.80;;;10.30;76.90;;;;;;4960676;28;20180;-93
2020/12/16 10:25:48;;;;;;;13.85;9.10;;;10.40;76.60;;;;;;4965567;28;20213;-94
2020/12/16 10:28:14;;;;;;;21.27;11.30;;;10.30;76.50;;;;;;4978963;28;20203;-94
2020/12/16 10:30:40;;;;;;;16.30;9.53;;;10.40;77.30;;;;;;4964347;28;20200;-93
2020/12/16 10:33:05;;;;;;;19.70;9.60;;;10.20;76.70;;;;;;4963927;28;20470;-93
2020/12/16 10:35:31;;;;;;;13.50;9.17;;;10.30;77.20;;;;;;4965019;28;20466;-94
2020/12/16 10:37:57;;;;;;;15.00;9.20;;;10.20;77.40;;;;;;4963661;28;20259;-91
2020/12/16 10:40:23;;;;;;;14.70;9.73;;;10.20;78.00;;;;;;4975216;28;20198;-91
2020/12/16 10:42:49;;;;;;;14.50;8.73;;;10.30;78.40;;;;;;4963008;28;20439;-92
2020/12/16 10:45:14;;;;;;;13.95;9.68;;;10.50;78.30;;;;;;4979871;28;20442;-91
2020/12/16 10:47:41;;;;;;;12.17;9.23;;;10.50;78.20;;;;;;4962832;28;20648;-91
2020/12/16 10:50:07;;;;;;;15.50;9.95;;;10.60;78.20;;;;;;4961479;28;20207;-91
2020/12/16 10:52:33;;;;;;;11.80;9.93;;;10.60;78.00;;;;;;4962237;28;20176;-90
2020/12/16 10:54:59;;;;;;;14.93;8.30;;;10.70;78.00;;;;;;4962325;28;20411;-91
2020/12/16 10:57:24;;;;;;;9.27;7.60;;;10.70;78.00;;;;;;4950926;29;20709;-91
2020/12/16 10:59:50;;;;;;;10.80;8.40;;;10.80;77.70;;;;;;4946602;29;20197;-91
2020/12/16 11:02:16;;;;;;;13.87;9.23;;;10.80;77.70;;;;;;4945711;29;20235;-91
2020/12/16 11:04:44;;;;;;;13.20;7.57;;;10.80;77.80;;;;;;4945878;29;20827;-91
2020/12/16 11:07:09;;;;;;;12.73;8.32;;;10.90;77.90;;;;;;4944746;29;20180;-92
2020/12/16 11:09:35;;;;;;;12.87;8.10;;;11.00;77.90;;;;;;4943605;29;20227;-91
2020/12/16 11:12:01;;;;;;;10.53;7.60;;;11.10;77.70;;;;;;4943132;29;20187;-91
2020/12/16 11:14:27;;;;;;;9.40;7.50;;;11.30;77.80;;;;;;4941552;29;20265;-92
2020/12/16 11:16:54;;;;;;;9.15;7.00;;;11.30;77.50;;;;;;4941644;29;20195;-91
2020/12/16 11:19:21;;;;;;;12.50;7.13;;;11.30;77.50;;;;;;4959213;28;20200;-91
2020/12/16 11:21:49;;;;;;;9.63;6.63;;;11.50;78.50;;;;;;4941370;29;20206;-92
2020/12/16 11:24:17;;;;;;;10.82;6.85;;;11.60;77.80;;;;;;4941273;29;20180;-92
2020/12/16 11:26:46;;;;;;;10.65;7.45;;;11.70;77.50;;;;;;4958743;29;20248;-92
2020/12/16 11:29:13;;;;;;;8.52;6.20;;;11.80;77.20;;;;;;4942006;29;20208;-91
2020/12/16 11:31:41;;;;;;;8.23;6.30;;;11.80;76.90;;;;;;4937754;29;20654;-92
2020/12/16 11:34:11;;;;;;;7.88;6.22;;;11.80;76.80;;;;;;4933762;29;20209;-92
2020/12/16 11:36:40;;;;;;;6.78;6.07;;;11.80;76.50;;;;;;4935929;29;20228;-91
2020/12/16 11:39:07;;;;;;;7.88;6.10;;;12.00;76.70;;;;;;4942268;29;20205;-91
2020/12/16 11:41:34;;;;;;;8.52;5.75;;;12.00;76.30;;;;;;4921963;29;20792;-92
2020/12/16 11:44:00;;;;;;;8.32;6.63;;;12.10;76.30;;;;;;4924517;29;20192;-91
2020/12/16 11:46:30;;;;;;;7.43;6.07;;;12.10;76.00;;;;;;4955537;29;20232;-92
2020/12/16 11:48:59;;;;;;;15.23;6.28;;;12.30;76.00;;;;;;4940663;28;20227;-92
2020/12/16 11:51:26;;;;;;;5.95;4.90;;;12.30;76.00;;;;;;4937033;29;20197;-92
2020/12/16 11:53:52;;;;;;;9.15;6.30;;;12.50;76.00;;;;;;4956117;29;20176;-92
2020/12/16 11:56:18;;;;;;;13.70;6.47;;;12.40;75.70;;;;;;4941052;29;20549;-93
2020/12/16 11:58:45;;;;;;;6.78;5.65;;;12.30;75.50;;;;;;4941485;28;20220;-92
2020/12/16 12:01:17;;;;;;;11.13;6.30;;;12.40;75.70;;;;;;4941933;29;20593;-92
2020/12/16 12:03:44;;;;;;;8.60;6.43;;;12.60;75.60;;;;;;4942547;29;20180;-92
2020/12/16 12:06:11;;;;;;;8.80;6.63;;;12.50;75.50;;;;;;4944944;29;20224;-92
2020/12/16 12:08:37;;;;;;;11.95;7.38;;;12.60;75.40;;;;;;4942413;28;20677;-92
2020/12/16 12:11:04;;;;;;;13.13;7.45;;;12.60;75.50;;;;;;4942659;28;20199;-92
2020/12/16 12:13:30;;;;;;;6.65;5.65;;;12.70;75.50;;;;;;4959602;29;20566;-92
2020/12/16 12:15:56;;;;;;;8.33;6.13;;;12.90;75.60;;;;;;4943434;29;20185;-92
2020/12/16 12:18:22;;;;;;;7.90;6.60;;;12.90;75.20;;;;;;4957810;29;20432;-91
2020/12/16 12:20:47;;;;;;;11.40;6.23;;;13.00;74.80;;;;;;4940874;29;20212;-90
2020/12/16 12:23:13;;;;;;;7.40;5.80;;;13.10;74.50;;;;;;4956700;29;20188;-93
2020/12/16 12:25:39;;;;;;;9.63;7.07;;;13.10;74.60;;;;;;4957006;29;20610;-90
2020/12/16 12:28:05;;;;;;;6.67;5.83;;;12.90;74.30;;;;;;4957399;29;20204;-92
2020/12/16 12:30:37;;;;;;;7.20;5.00;;;13.10;74.60;;;;;;4943119;29;20446;-92
2020/12/16 12:33:03;;;;;;;12.32;6.68;;;13.20;74.20;;;;;;4961190;29;20420;-93
2020/12/16 12:35:29;;;;;;;8.57;6.85;;;13.30;74.40;;;;;;4973589;28;20648;-93
2020/12/16 12:38:03;;;;;;;8.27;5.20;;;13.30;74.30;;;;;;4945144;29;20188;-93
2020/12/16 12:40:29;;;;;;;6.10;5.43;;;13.10;73.50;;;;;;4943880;29;20208;-93
2020/12/16 12:42:54;;;;;;;8.20;6.53;;;13.20;74.20;;;;;;4950083;29;20182;-92
2020/12/16 12:45:53;;;;;;;6.50;5.60;;;13.10;74.20;;;;;;4937182;29;20184;-93
2020/12/16 12:48:19;;;;;;;6.70;5.68;;;13.20;73.90;;;;;;4959305;29;20650;-92